SKPE/PEI METAR and TAF weather

Enter ICAO airport designator
Station Type Date Time Source
SKPE METAR 2019/12/07 07:00 UTC NOAA

SKPE 070700Z VRB02KT 7000 VCFG SCT013 SCT070 19/19 A3009


Station Type Date Time Source
SKPE Decoded METAR 2019/12/07 07:00 UTC NOAA

Pereira / Matecana, Colombia (SKPE) 04-49N 075-44W 1342M
Dec 07, 2019 - 02:00 AM EST / 2019.12.07 0700 UTC
Wind: Variable at 2 MPH (2 KT):0
Visibility: 4 mile(s):0
Sky conditions: partly cloudy
Weather: fog in the vicinity
Temperature: 66 F (19 C)
Dew Point: 66 F (19 C)
Relative Humidity: 100%
Pressure (altimeter): 30.09 in. Hg (1018 hPa)
ob: SKPE 070700Z VRB02KT 7000 VCFG SCT013 SCT070 19/19 A3009
cycle: 7

Station Type Date Time Source
SKPE TAF 2019/12/07 06:45 UTC NOAA

TAF SKPE 070430Z 0706/0806 VRB02KT 9999 SCT012 SCT090
TEMPO 0709/0713 3000 BR DZ BKN007 SCT070
BECMG 0714/0716 26008KT
TEMPO 0721/0723 5000 TSRA SCT016CB TX27/0719Z TN18/0711Z

Example: see airport list